To NAV CANADA Home Page Login to a new session Search on AWWS site Feedback and Comments Disclaimer Vers la page française équivalente Tips FAQ What's new on the site To the Forecasts and Observations / NOTAM section To "File a Flight Plan" website Publications and other links Update of the User's profile FIC Telephone Numbers My Weather Data Folder Route Weather Data Regional Weather Data Local Weather Data To the Forecasts and Observations / NOTAM section
Request Generated 07/25/2016 at 22:02:12 UTC . Weather information available at that time is displayed.

METAR/TAF

GANDER/GANDER INTL/NL    

METAR CYQX 252100Z 07009KT 20SM SCT048 BKN062 24/15 A2984 RMK CU4CU2
CI TR SLP107 DENSITY ALT 1700FT=
METAR CYQX 252000Z 08006KT 360V090 20SM SCT042 BKN056 25/14 A2984 RMK
CU4CU2 CI TR SLP106 DENSITY ALT 1800FT=
METAR CYQX 251900Z CCA 01003KT 350V070 20SM FEW048 SCT062 SCT100
27/14 A2984 RMK CU2CU1AC1 CC TR SLP106 DENSITY ALT 2100FT=
METAR CYQX 251900Z 01003KT 350V070 20SM FEW048 SCT062 SCT100 27/14
A2984 RMK CU2CU1AC1 SLP106 DENSITY ALT 2100FT=

TAF CYQX 251742Z 2518/2618 05006KT P6SM SCT050 TEMPO 2518/2524 P6SM
-SHRA BKN050
FM260000 06006KT P6SM FEW030
FM260500 VRB03KT P6SM SKC PROB30 2605/2610 1/2SM FG VV002
FM261200 17008KT P6SM SKC
FM261700 20008KT P6SM BKN060 BKN220
RMK NXT FCST BY 260000Z=
Your time UTC time
Weather data provided by Environment Canada and NAV CANADA